sensor_id;sensor_type;location;lat;lon;timestamp;P1;durP1;ratioP1;P2;durP2;ratioP2
27746;SDS011;15138;51.012;4.692;2023-04-01T00:00:35;9.73;;;2.08;;
27746;SDS011;15138;51.012;4.692;2023-04-01T00:03:03;9.00;;;2.05;;
27746;SDS011;15138;51.012;4.692;2023-04-01T00:05:31;6.55;;;1.50;;
27746;SDS011;15138;51.012;4.692;2023-04-01T00:08:01;8.52;;;1.60;;
27746;SDS011;15138;51.012;4.692;2023-04-01T00:10:29;8.38;;;2.17;;
27746;SDS011;15138;51.012;4.692;2023-04-01T00:12:59;7.57;;;2.13;;
27746;SDS011;15138;51.012;4.692;2023-04-01T00:15:28;9.60;;;2.30;;
27746;SDS011;15138;51.012;4.692;2023-04-01T00:17:56;8.95;;;2.03;;
27746;SDS011;15138;51.012;4.692;2023-04-01T00:20:25;7.10;;;1.65;;
27746;SDS011;15138;51.012;4.692;2023-04-01T00:22:54;12.32;;;2.05;;
27746;SDS011;15138;51.012;4.692;2023-04-01T00:25:23;10.05;;;1.75;;
27746;SDS011;15138;51.012;4.692;2023-04-01T00:27:52;6.32;;;1.60;;
27746;SDS011;15138;51.012;4.692;2023-04-01T00:30:20;9.07;;;1.58;;
27746;SDS011;15138;51.012;4.692;2023-04-01T00:32:50;8.10;;;1.88;;
27746;SDS011;15138;51.012;4.692;2023-04-01T00:35:19;5.57;;;1.48;;
27746;SDS011;15138;51.012;4.692;2023-04-01T00:37:48;10.07;;;2.15;;
27746;SDS011;15138;51.012;4.692;2023-04-01T00:40:23;9.18;;;2.42;;
27746;SDS011;15138;51.012;4.692;2023-04-01T00:42:54;10.43;;;1.80;;
27746;SDS011;15138;51.012;4.692;2023-04-01T00:45:24;5.85;;;1.42;;
27746;SDS011;15138;51.012;4.692;2023-04-01T00:47:55;8.25;;;1.85;;
27746;SDS011;15138;51.012;4.692;2023-04-01T00:50:26;6.43;;;1.90;;
27746;SDS011;15138;51.012;4.692;2023-04-01T00:52:56;6.68;;;1.42;;
27746;SDS011;15138;51.012;4.692;2023-04-01T00:55:27;6.28;;;1.55;;
27746;SDS011;15138;51.012;4.692;2023-04-01T00:57:59;7.45;;;1.65;;
27746;SDS011;15138;51.012;4.692;2023-04-01T01:00:29;6.28;;;1.40;;
27746;SDS011;15138;51.012;4.692;2023-04-01T01:02:57;5.53;;;1.40;;
27746;SDS011;15138;51.012;4.692;2023-04-01T01:05:29;3.28;;;0.90;;
27746;SDS011;15138;51.012;4.692;2023-04-01T01:08:15;3.78;;;1.40;;
27746;SDS011;15138;51.012;4.692;2023-04-01T01:10:55;5.80;;;1.40;;
27746;SDS011;15138;51.012;4.692;2023-04-01T01:13:24;5.10;;;1.48;;
27746;SDS011;15138;51.012;4.692;2023-04-01T01:16:01;3.15;;;1.13;;
27746;SDS011;15138;51.012;4.692;2023-04-01T01:18:35;3.53;;;1.45;;
27746;SDS011;15138;51.012;4.692;2023-04-01T01:21:29;7.35;;;1.95;;
27746;SDS011;15138;51.012;4.692;2023-04-01T01:27:16;6.35;;;1.95;;
27746;SDS011;15138;51.012;4.692;2023-04-01T01:32:55;5.88;;;1.45;;
27746;SDS011;15138;51.012;4.692;2023-04-01T01:35:38;4.78;;;1.40;;
27746;SDS011;15138;51.012;4.692;2023-04-01T01:38:10;9.02;;;2.25;;
27746;SDS011;15138;51.012;4.692;2023-04-01T01:40:41;7.15;;;1.98;;
27746;SDS011;15138;51.012;4.692;2023-04-01T01:43:12;7.22;;;1.95;;
27746;SDS011;15138;51.012;4.692;2023-04-01T01:45:44;6.18;;;1.92;;
27746;SDS011;15138;51.012;4.692;2023-04-01T01:48:16;6.47;;;1.98;;
27746;SDS011;15138;51.012;4.692;2023-04-01T01:50:46;8.63;;;2.50;;
27746;SDS011;15138;51.012;4.692;2023-04-01T01:53:16;5.78;;;2.00;;
27746;SDS011;15138;51.012;4.692;2023-04-01T01:55:44;5.57;;;2.03;;
27746;SDS011;15138;51.012;4.692;2023-04-01T01:58:15;6.95;;;2.08;;
27746;SDS011;15138;51.012;4.692;2023-04-01T02:00:48;6.32;;;2.08;;
27746;SDS011;15138;51.012;4.692;2023-04-01T02:03:20;4.57;;;2.20;;
27746;SDS011;15138;51.012;4.692;2023-04-01T02:05:52;4.93;;;2.22;;
27746;SDS011;15138;51.012;4.692;2023-04-01T02:08:22;5.65;;;1.83;;
27746;SDS011;15138;51.012;4.692;2023-04-01T02:10:56;1.92;;;1.05;;
27746;SDS011;15138;51.012;4.692;2023-04-01T02:13:27;5.07;;;2.08;;
27746;SDS011;15138;51.012;4.692;2023-04-01T02:15:59;3.58;;;1.45;;
27746;SDS011;15138;51.012;4.692;2023-04-01T02:18:31;3.65;;;1.42;;
27746;SDS011;15138;51.012;4.692;2023-04-01T02:21:04;4.40;;;1.70;;
27746;SDS011;15138;51.012;4.692;2023-04-01T02:23:34;5.97;;;1.85;;
27746;SDS011;15138;51.012;4.692;2023-04-01T02:26:03;4.30;;;2.10;;
27746;SDS011;15138;51.012;4.692;2023-04-01T02:28:34;6.47;;;2.33;;
27746;SDS011;15138;51.012;4.692;2023-04-01T02:31:05;6.82;;;1.98;;
27746;SDS011;15138;51.012;4.692;2023-04-01T02:33:36;6.97;;;2.65;;
27746;SDS011;15138;51.012;4.692;2023-04-01T02:36:08;11.02;;;2.60;;
27746;SDS011;15138;51.012;4.692;2023-04-01T02:38:39;8.02;;;2.40;;
27746;SDS011;15138;51.012;4.692;2023-04-01T02:41:09;8.82;;;2.45;;
27746;SDS011;15138;51.012;4.692;2023-04-01T02:43:37;4.90;;;2.15;;
27746;SDS011;15138;51.012;4.692;2023-04-01T02:46:05;8.07;;;3.20;;
27746;SDS011;15138;51.012;4.692;2023-04-01T02:48:34;7.32;;;2.08;;
27746;SDS011;15138;51.012;4.692;2023-04-01T02:51:02;6.18;;;2.00;;
27746;SDS011;15138;51.012;4.692;2023-04-01T02:53:32;6.63;;;1.80;;
27746;SDS011;15138;51.012;4.692;2023-04-01T02:56:00;7.18;;;2.33;;
27746;SDS011;15138;51.012;4.692;2023-04-01T02:58:28;5.80;;;1.30;;
27746;SDS011;15138;51.012;4.692;2023-04-01T03:00:57;6.13;;;1.85;;
27746;SDS011;15138;51.012;4.692;2023-04-01T03:03:25;7.00;;;2.70;;
27746;SDS011;15138;51.012;4.692;2023-04-01T03:05:53;4.18;;;1.70;;
27746;SDS011;15138;51.012;4.692;2023-04-01T03:08:22;9.73;;;2.30;;
27746;SDS011;15138;51.012;4.692;2023-04-01T03:10:52;6.00;;;1.90;;
27746;SDS011;15138;51.012;4.692;2023-04-01T03:13:20;6.30;;;1.63;;
27746;SDS011;15138;51.012;4.692;2023-04-01T03:15:48;6.85;;;2.22;;
27746;SDS011;15138;51.012;4.692;2023-04-01T03:18:16;6.30;;;2.05;;
27746;SDS011;15138;51.012;4.692;2023-04-01T03:20:44;3.85;;;1.60;;
27746;SDS011;15138;51.012;4.692;2023-04-01T03:23:13;5.53;;;1.92;;
27746;SDS011;15138;51.012;4.692;2023-04-01T03:25:43;5.90;;;1.92;;
27746;SDS011;15138;51.012;4.692;2023-04-01T03:28:13;8.18;;;2.10;;
27746;SDS011;15138;51.012;4.692;2023-04-01T03:30:41;3.85;;;1.60;;
27746;SDS011;15138;51.012;4.692;2023-04-01T03:33:09;4.95;;;1.60;;
27746;SDS011;15138;51.012;4.692;2023-04-01T03:35:37;4.13;;;1.67;;
27746;SDS011;15138;51.012;4.692;2023-04-01T03:38:05;8.02;;;2.33;;
27746;SDS011;15138;51.012;4.692;2023-04-01T03:40:34;5.70;;;2.22;;
27746;SDS011;15138;51.012;4.692;2023-04-01T03:43:03;5.80;;;1.88;;
27746;SDS011;15138;51.012;4.692;2023-04-01T03:45:36;7.88;;;1.92;;
27746;SDS011;15138;51.012;4.692;2023-04-01T03:48:10;3.67;;;1.38;;
27746;SDS011;15138;51.012;4.692;2023-04-01T03:50:38;5.95;;;1.80;;
27746;SDS011;15138;51.012;4.692;2023-04-01T03:53:07;4.10;;;1.63;;
27746;SDS011;15138;51.012;4.692;2023-04-01T03:55:36;6.53;;;1.85;;
27746;SDS011;15138;51.012;4.692;2023-04-01T03:58:04;5.50;;;1.23;;
27746;SDS011;15138;51.012;4.692;2023-04-01T04:00:33;2.88;;;1.40;;
27746;SDS011;15138;51.012;4.692;2023-04-01T04:03:03;6.25;;;2.65;;
27746;SDS011;15138;51.012;4.692;2023-04-01T04:05:31;3.85;;;1.60;;
27746;SDS011;15138;51.012;4.692;2023-04-01T04:08:00;2.38;;;1.38;;
27746;SDS011;15138;51.012;4.692;2023-04-01T04:10:28;4.07;;;1.67;;
27746;SDS011;15138;51.012;4.692;2023-04-01T04:12:56;4.47;;;1.50;;
27746;SDS011;15138;51.012;4.692;2023-04-01T04:15:24;3.92;;;1.08;;
27746;SDS011;15138;51.012;4.692;2023-04-01T04:17:53;3.00;;;1.40;;
27746;SDS011;15138;51.012;4.692;2023-04-01T04:20:22;2.67;;;1.58;;
27746;SDS011;15138;51.012;4.692;2023-04-01T04:22:50;4.32;;;1.70;;
27746;SDS011;15138;51.012;4.692;2023-04-01T04:25:18;3.58;;;1.75;;
27746;SDS011;15138;51.012;4.692;2023-04-01T04:27:47;3.03;;;1.27;;
27746;SDS011;15138;51.012;4.692;2023-04-01T04:30:15;4.28;;;2.13;;
27746;SDS011;15138;51.012;4.692;2023-04-01T04:32:44;5.10;;;1.90;;
27746;SDS011;15138;51.012;4.692;2023-04-01T04:35:12;3.17;;;1.60;;
27746;SDS011;15138;51.012;4.692;2023-04-01T04:37:42;5.13;;;2.20;;
27746;SDS011;15138;51.012;4.692;2023-04-01T04:40:10;4.53;;;1.70;;
27746;SDS011;15138;51.012;4.692;2023-04-01T04:42:38;6.75;;;2.33;;
27746;SDS011;15138;51.012;4.692;2023-04-01T04:45:06;3.33;;;1.90;;
27746;SDS011;15138;51.012;4.692;2023-04-01T04:47:35;4.10;;;2.10;;
27746;SDS011;15138;51.012;4.692;2023-04-01T04:50:04;7.20;;;3.22;;
27746;SDS011;15138;51.012;4.692;2023-04-01T04:52:33;6.88;;;2.40;;
27746;SDS011;15138;51.012;4.692;2023-04-01T04:55:02;7.15;;;2.72;;
27746;SDS011;15138;51.012;4.692;2023-04-01T04:57:31;4.32;;;2.78;;
27746;SDS011;15138;51.012;4.692;2023-04-01T04:59:59;6.40;;;3.08;;
27746;SDS011;15138;51.012;4.692;2023-04-01T05:02:27;4.75;;;3.03;;
27746;SDS011;15138;51.012;4.692;2023-04-01T05:04:57;7.25;;;4.45;;
27746;SDS011;15138;51.012;4.692;2023-04-01T05:07:25;4.88;;;2.67;;
27746;SDS011;15138;51.012;4.692;2023-04-01T05:09:53;7.13;;;3.45;;
27746;SDS011;15138;51.012;4.692;2023-04-01T05:12:22;6.75;;;3.38;;
27746;SDS011;15138;51.012;4.692;2023-04-01T05:14:51;5.97;;;3.35;;
27746;SDS011;15138;51.012;4.692;2023-04-01T05:17:19;4.63;;;2.38;;
27746;SDS011;15138;51.012;4.692;2023-04-01T05:19:47;6.50;;;3.30;;
27746;SDS011;15138;51.012;4.692;2023-04-01T05:22:15;5.65;;;2.60;;
27746;SDS011;15138;51.012;4.692;2023-04-01T05:24:43;2.83;;;1.58;;
27746;SDS011;15138;51.012;4.692;2023-04-01T05:27:12;4.20;;;3.20;;
27746;SDS011;15138;51.012;4.692;2023-04-01T05:29:41;7.05;;;3.50;;
27746;SDS011;15138;51.012;4.692;2023-04-01T05:32:09;4.80;;;2.03;;
27746;SDS011;15138;51.012;4.692;2023-04-01T05:34:37;5.88;;;2.70;;
27746;SDS011;15138;51.012;4.692;2023-04-01T05:37:06;5.05;;;3.20;;
27746;SDS011;15138;51.012;4.692;2023-04-01T05:39:35;4.70;;;3.40;;
27746;SDS011;15138;51.012;4.692;2023-04-01T05:42:05;4.15;;;2.00;;
27746;SDS011;15138;51.012;4.692;2023-04-01T05:44:34;4.15;;;3.30;;
27746;SDS011;15138;51.012;4.692;2023-04-01T05:47:04;4.45;;;2.95;;
27746;SDS011;15138;51.012;4.692;2023-04-01T05:49:32;4.47;;;2.47;;
27746;SDS011;15138;51.012;4.692;2023-04-01T05:52:01;3.50;;;2.28;;
27746;SDS011;15138;51.012;4.692;2023-04-01T05:54:29;2.35;;;1.55;;
27746;SDS011;15138;51.012;4.692;2023-04-01T05:56:57;2.83;;;2.33;;
27746;SDS011;15138;51.012;4.692;2023-04-01T05:59:25;1.70;;;1.13;;
27746;SDS011;15138;51.012;4.692;2023-04-01T06:01:54;6.10;;;2.97;;
27746;SDS011;15138;51.012;4.692;2023-04-01T06:04:26;5.00;;;2.63;;
27746;SDS011;15138;51.012;4.692;2023-04-01T06:09:29;2.97;;;1.85;;
27746;SDS011;15138;51.012;4.692;2023-04-01T06:12:04;3.03;;;1.40;;
27746;SDS011;15138;51.012;4.692;2023-04-01T06:14:53;3.58;;;1.83;;
27746;SDS011;15138;51.012;4.692;2023-04-01T06:17:40;2.28;;;1.40;;
27746;SDS011;15138;51.012;4.692;2023-04-01T06:20:22;2.33;;;1.88;;
27746;SDS011;15138;51.012;4.692;2023-04-01T06:23:03;3.00;;;1.73;;
27746;SDS011;15138;51.012;4.692;2023-04-01T06:25:53;1.90;;;1.33;;
27746;SDS011;15138;51.012;4.692;2023-04-01T06:28:35;1.75;;;1.20;;
27746;SDS011;15138;51.012;4.692;2023-04-01T06:31:26;2.30;;;1.58;;
27746;SDS011;15138;51.012;4.692;2023-04-01T06:34:08;2.28;;;1.30;;
27746;SDS011;15138;51.012;4.692;2023-04-01T06:36:53;2.80;;;1.40;;
27746;SDS011;15138;51.012;4.692;2023-04-01T06:39:41;2.45;;;1.10;;
27746;SDS011;15138;51.012;4.692;2023-04-01T06:42:13;1.58;;;1.20;;
27746;SDS011;15138;51.012;4.692;2023-04-01T06:45:10;3.65;;;1.70;;
27746;SDS011;15138;51.012;4.692;2023-04-01T06:47:50;2.30;;;1.33;;
27746;SDS011;15138;51.012;4.692;2023-04-01T06:50:28;4.53;;;1.40;;
27746;SDS011;15138;51.012;4.692;2023-04-01T06:53:02;9.98;;;2.30;;
27746;SDS011;15138;51.012;4.692;2023-04-01T06:55:38;1.23;;;0.80;;
27746;SDS011;15138;51.012;4.692;2023-04-01T06:58:13;1.83;;;1.40;;
27746;SDS011;15138;51.012;4.692;2023-04-01T07:00:48;4.35;;;1.30;;
27746;SDS011;15138;51.012;4.692;2023-04-01T07:03:20;0.73;;;0.63;;
27746;SDS011;15138;51.012;4.692;2023-04-01T07:05:55;2.42;;;1.30;;
27746;SDS011;15138;51.012;4.692;2023-04-01T07:08:31;2.42;;;1.30;;
27746;SDS011;15138;51.012;4.692;2023-04-01T07:11:04;4.45;;;1.30;;
27746;SDS011;15138;51.012;4.692;2023-04-01T07:13:34;1.65;;;1.48;;
27746;SDS011;15138;51.012;4.692;2023-04-01T07:16:09;1.40;;;0.95;;
27746;SDS011;15138;51.012;4.692;2023-04-01T07:18:43;2.65;;;1.23;;
27746;SDS011;15138;51.012;4.692;2023-04-01T07:21:19;1.85;;;0.85;;
27746;SDS011;15138;51.012;4.692;2023-04-01T07:23:56;2.55;;;1.13;;
27746;SDS011;15138;51.012;4.692;2023-04-01T07:26:28;1.25;;;0.93;;
27746;SDS011;15138;51.012;4.692;2023-04-01T07:28:56;1.63;;;1.00;;
27746;SDS011;15138;51.012;4.692;2023-04-01T07:31:29;1.88;;;1.27;;
27746;SDS011;15138;51.012;4.692;2023-04-01T07:34:10;2.10;;;0.90;;
27746;SDS011;15138;51.012;4.692;2023-04-01T07:36:45;2.67;;;1.27;;
27746;SDS011;15138;51.012;4.692;2023-04-01T07:39:21;3.30;;;0.95;;
27746;SDS011;15138;51.012;4.692;2023-04-01T07:41:59;1.85;;;1.23;;
27746;SDS011;15138;51.012;4.692;2023-04-01T07:44:34;2.92;;;1.20;;
27746;SDS011;15138;51.012;4.692;2023-04-01T07:47:16;2.05;;;1.20;;
27746;SDS011;15138;51.012;4.692;2023-04-01T07:49:55;1.55;;;1.08;;
27746;SDS011;15138;51.012;4.692;2023-04-01T07:52:34;1.50;;;0.90;;
27746;SDS011;15138;51.012;4.692;2023-04-01T07:55:09;1.83;;;1.20;;
27746;SDS011;15138;51.012;4.692;2023-04-01T07:57:43;1.83;;;1.00;;
27746;SDS011;15138;51.012;4.692;2023-04-01T08:00:18;1.60;;;1.20;;
27746;SDS011;15138;51.012;4.692;2023-04-01T08:02:54;3.13;;;1.35;;
27746;SDS011;15138;51.012;4.692;2023-04-01T08:05:34;2.10;;;1.25;;
27746;SDS011;15138;51.012;4.692;2023-04-01T08:08:11;3.30;;;1.48;;
27746;SDS011;15138;51.012;4.692;2023-04-01T08:10:48;3.42;;;1.65;;
27746;SDS011;15138;51.012;4.692;2023-04-01T08:13:22;3.20;;;1.92;;
27746;SDS011;15138;51.012;4.692;2023-04-01T08:16:02;3.88;;;2.05;;
27746;SDS011;15138;51.012;4.692;2023-04-01T08:18:38;1.77;;;1.42;;
27746;SDS011;15138;51.012;4.692;2023-04-01T08:21:14;4.40;;;1.98;;
27746;SDS011;15138;51.012;4.692;2023-04-01T08:23:49;2.60;;;1.85;;
27746;SDS011;15138;51.012;4.692;2023-04-01T08:26:24;2.50;;;2.03;;
27746;SDS011;15138;51.012;4.692;2023-04-01T08:28:59;3.45;;;1.73;;
27746;SDS011;15138;51.012;4.692;2023-04-01T08:31:34;2.72;;;1.95;;
27746;SDS011;15138;51.012;4.692;2023-04-01T08:34:08;3.55;;;1.80;;
27746;SDS011;15138;51.012;4.692;2023-04-01T08:36:43;1.83;;;1.58;;
27746;SDS011;15138;51.012;4.692;2023-04-01T08:39:16;1.63;;;1.52;;
27746;SDS011;15138;51.012;4.692;2023-04-01T08:42:07;3.00;;;1.85;;
27746;SDS011;15138;51.012;4.692;2023-04-01T08:48:23;2.42;;;1.80;;
27746;SDS011;15138;51.012;4.692;2023-04-01T08:51:10;1.75;;;1.27;;
27746;SDS011;15138;51.012;4.692;2023-04-01T08:53:49;3.55;;;1.40;;
27746;SDS011;15138;51.012;4.692;2023-04-01T08:56:33;5.70;;;1.40;;
27746;SDS011;15138;51.012;4.692;2023-04-01T08:59:13;1.90;;;1.50;;
27746;SDS011;15138;51.012;4.692;2023-04-01T09:01:49;3.92;;;1.45;;
27746;SDS011;15138;51.012;4.692;2023-04-01T09:04:31;2.80;;;1.35;;
27746;SDS011;15138;51.012;4.692;2023-04-01T09:07:18;1.35;;;1.20;;
27746;SDS011;15138;51.012;4.692;2023-04-01T09:10:08;1.33;;;1.15;;
27746;SDS011;15138;51.012;4.692;2023-04-01T09:15:57;1.23;;;0.90;;
27746;SDS011;15138;51.012;4.692;2023-04-01T09:18:54;1.33;;;1.10;;
27746;SDS011;15138;51.012;4.692;2023-04-01T09:21:47;1.40;;;1.23;;
27746;SDS011;15138;51.012;4.692;2023-04-01T09:24:35;1.65;;;1.20;;
27746;SDS011;15138;51.012;4.692;2023-04-01T09:27:29;2.28;;;1.10;;
27746;SDS011;15138;51.012;4.692;2023-04-01T09:33:27;2.20;;;1.50;;
27746;SDS011;15138;51.012;4.692;2023-04-01T09:36:21;1.88;;;1.40;;
27746;SDS011;15138;51.012;4.692;2023-04-01T09:39:06;3.40;;;1.58;;
27746;SDS011;15138;51.012;4.692;2023-04-01T09:42:00;1.80;;;1.50;;
27746;SDS011;15138;51.012;4.692;2023-04-01T09:44:41;1.63;;;1.40;;
27746;SDS011;15138;51.012;4.692;2023-04-01T09:47:16;3.72;;;2.22;;
27746;SDS011;15138;51.012;4.692;2023-04-01T09:49:59;1.23;;;1.13;;
27746;SDS011;15138;51.012;4.692;2023-04-01T09:52:43;0.85;;;0.85;;
27746;SDS011;15138;51.012;4.692;2023-04-01T09:55:20;1.40;;;1.20;;
27746;SDS011;15138;51.012;4.692;2023-04-01T09:57:55;1.52;;;1.25;;
27746;SDS011;15138;51.012;4.692;2023-04-01T10:03:47;2.75;;;2.25;;
27746;SDS011;15138;51.012;4.692;2023-04-01T10:12:25;1.80;;;1.35;;
27746;SDS011;15138;51.012;4.692;2023-04-01T10:18:24;2.58;;;1.13;;
27746;SDS011;15138;51.012;4.692;2023-04-01T10:21:25;3.88;;;2.67;;
27746;SDS011;15138;51.012;4.692;2023-04-01T10:24:29;3.65;;;3.05;;
27746;SDS011;15138;51.012;4.692;2023-04-01T10:27:46;5.57;;;4.13;;
27746;SDS011;15138;51.012;4.692;2023-04-01T10:33:47;6.80;;;4.47;;
27746;SDS011;15138;51.012;4.692;2023-04-01T10:36:48;5.88;;;4.22;;
27746;SDS011;15138;51.012;4.692;2023-04-01T10:39:27;6.00;;;4.85;;
27746;SDS011;15138;51.012;4.692;2023-04-01T10:45:40;10.10;;;7.10;;
27746;SDS011;15138;51.012;4.692;2023-04-01T10:51:45;10.73;;;6.70;;
27746;SDS011;15138;51.012;4.692;2023-04-01T10:57:39;11.98;;;8.35;;
27746;SDS011;15138;51.012;4.692;2023-04-01T11:00:23;3.38;;;2.55;;
27746;SDS011;15138;51.012;4.692;2023-04-01T11:12:44;6.85;;;4.90;;
27746;SDS011;15138;51.012;4.692;2023-04-01T11:18:37;4.70;;;3.67;;
27746;SDS011;15138;51.012;4.692;2023-04-01T11:21:38;6.82;;;5.75;;
27746;SDS011;15138;51.012;4.692;2023-04-01T11:24:31;7.65;;;3.33;;
27746;SDS011;15138;51.012;4.692;2023-04-01T11:27:19;6.20;;;4.28;;
27746;SDS011;15138;51.012;4.692;2023-04-01T11:30:01;6.10;;;3.13;;
27746;SDS011;15138;51.012;4.692;2023-04-01T11:32:40;3.47;;;2.28;;
27746;SDS011;15138;51.012;4.692;2023-04-01T11:38:30;4.28;;;3.42;;
27746;SDS011;15138;51.012;4.692;2023-04-01T11:41:13;4.82;;;3.80;;
27746;SDS011;15138;51.012;4.692;2023-04-01T11:43:54;3.45;;;2.88;;
27746;SDS011;15138;51.012;4.692;2023-04-01T11:46:37;4.72;;;2.90;;
27746;SDS011;15138;51.012;4.692;2023-04-01T11:49:20;4.47;;;3.58;;
27746;SDS011;15138;51.012;4.692;2023-04-01T11:52:08;5.78;;;3.15;;
27746;SDS011;15138;51.012;4.692;2023-04-01T11:54:47;4.80;;;3.35;;
27746;SDS011;15138;51.012;4.692;2023-04-01T11:57:31;4.15;;;2.95;;
27746;SDS011;15138;51.012;4.692;2023-04-01T12:00:15;6.03;;;4.30;;
27746;SDS011;15138;51.012;4.692;2023-04-01T12:03:10;6.95;;;5.57;;
27746;SDS011;15138;51.012;4.692;2023-04-01T12:06:02;7.75;;;4.40;;
27746;SDS011;15138;51.012;4.692;2023-04-01T12:08:39;6.97;;;5.28;;
27746;SDS011;15138;51.012;4.692;2023-04-01T12:11:21;6.15;;;4.93;;
27746;SDS011;15138;51.012;4.692;2023-04-01T12:13:55;6.30;;;4.07;;
27746;SDS011;15138;51.012;4.692;2023-04-01T12:16:43;6.20;;;4.25;;
27746;SDS011;15138;51.012;4.692;2023-04-01T12:21:53;5.97;;;4.32;;
27746;SDS011;15138;51.012;4.692;2023-04-01T12:24:45;6.03;;;4.25;;
27746;SDS011;15138;51.012;4.692;2023-04-01T12:27:20;4.57;;;3.80;;
27746;SDS011;15138;51.012;4.692;2023-04-01T12:33:07;4.43;;;4.03;;
27746;SDS011;15138;51.012;4.692;2023-04-01T12:35:52;6.80;;;4.57;;
27746;SDS011;15138;51.012;4.692;2023-04-01T12:38:30;3.42;;;3.13;;
27746;SDS011;15138;51.012;4.692;2023-04-01T12:41:11;5.43;;;3.88;;
27746;SDS011;15138;51.012;4.692;2023-04-01T12:44:00;4.13;;;3.28;;
27746;SDS011;15138;51.012;4.692;2023-04-01T12:46:57;5.18;;;4.18;;
27746;SDS011;15138;51.012;4.692;2023-04-01T12:49:49;6.20;;;4.57;;
27746;SDS011;15138;51.012;4.692;2023-04-01T12:52:43;6.43;;;3.00;;
27746;SDS011;15138;51.012;4.692;2023-04-01T12:55:25;2.92;;;2.45;;
27746;SDS011;15138;51.012;4.692;2023-04-01T13:01:37;4.25;;;3.30;;
27746;SDS011;15138;51.012;4.692;2023-04-01T13:04:34;5.88;;;2.88;;
27746;SDS011;15138;51.012;4.692;2023-04-01T13:07:31;3.08;;;2.15;;
27746;SDS011;15138;51.012;4.692;2023-04-01T13:10:13;4.03;;;2.65;;
27746;SDS011;15138;51.012;4.692;2023-04-01T13:12:56;4.32;;;2.58;;
27746;SDS011;15138;51.012;4.692;2023-04-01T13:15:43;3.47;;;2.30;;
27746;SDS011;15138;51.012;4.692;2023-04-01T13:20:55;2.72;;;2.30;;
27746;SDS011;15138;51.012;4.692;2023-04-01T13:23:34;4.43;;;2.13;;
27746;SDS011;15138;51.012;4.692;2023-04-01T13:26:16;2.10;;;1.75;;
27746;SDS011;15138;51.012;4.692;2023-04-01T13:28:50;1.75;;;1.60;;
27746;SDS011;15138;51.012;4.692;2023-04-01T13:31:27;1.40;;;1.30;;
27746;SDS011;15138;51.012;4.692;2023-04-01T13:34:17;3.08;;;1.77;;
27746;SDS011;15138;51.012;4.692;2023-04-01T13:37:02;1.60;;;1.30;;
27746;SDS011;15138;51.012;4.692;2023-04-01T13:39:45;2.13;;;1.45;;
27746;SDS011;15138;51.012;4.692;2023-04-01T13:42:24;4.05;;;1.60;;
27746;SDS011;15138;51.012;4.692;2023-04-01T13:44:59;2.75;;;1.17;;
27746;SDS011;15138;51.012;4.692;2023-04-01T13:50:32;1.75;;;1.63;;
27746;SDS011;15138;51.012;4.692;2023-04-01T13:56:23;1.67;;;1.02;;
27746;SDS011;15138;51.012;4.692;2023-04-01T13:59:07;2.28;;;1.10;;
27746;SDS011;15138;51.012;4.692;2023-04-01T14:01:47;1.40;;;1.30;;
27746;SDS011;15138;51.012;4.692;2023-04-01T14:04:41;1.02;;;0.88;;
27746;SDS011;15138;51.012;4.692;2023-04-01T14:07:22;2.80;;;1.40;;
27746;SDS011;15138;51.012;4.692;2023-04-01T14:10:18;2.60;;;1.60;;
27746;SDS011;15138;51.012;4.692;2023-04-01T14:12:53;1.60;;;1.50;;
27746;SDS011;15138;51.012;4.692;2023-04-01T14:15:40;1.65;;;1.30;;
27746;SDS011;15138;51.012;4.692;2023-04-01T14:21:21;2.42;;;1.45;;
27746;SDS011;15138;51.012;4.692;2023-04-01T14:24:05;3.13;;;1.45;;
27746;SDS011;15138;51.012;4.692;2023-04-01T14:30:00;2.88;;;2.05;;
27746;SDS011;15138;51.012;4.692;2023-04-01T14:32:49;1.95;;;1.45;;
27746;SDS011;15138;51.012;4.692;2023-04-01T14:35:25;2.90;;;1.65;;
27746;SDS011;15138;51.012;4.692;2023-04-01T14:41:02;2.53;;;1.73;;
27746;SDS011;15138;51.012;4.692;2023-04-01T14:43:44;2.38;;;1.60;;
27746;SDS011;15138;51.012;4.692;2023-04-01T14:46:32;2.28;;;1.20;;
27746;SDS011;15138;51.012;4.692;2023-04-01T14:49:18;1.52;;;1.15;;
27746;SDS011;15138;51.012;4.692;2023-04-01T14:51:49;1.80;;;1.50;;
27746;SDS011;15138;51.012;4.692;2023-04-01T14:54:19;5.00;;;2.03;;
27746;SDS011;15138;51.012;4.692;2023-04-01T14:57:04;5.22;;;3.10;;
27746;SDS011;15138;51.012;4.692;2023-04-01T14:59:39;4.05;;;1.55;;
27746;SDS011;15138;51.012;4.692;2023-04-01T15:02:14;3.05;;;1.60;;
27746;SDS011;15138;51.012;4.692;2023-04-01T15:05:03;2.33;;;1.80;;
27746;SDS011;15138;51.012;4.692;2023-04-01T15:07:51;1.95;;;1.10;;
27746;SDS011;15138;51.012;4.692;2023-04-01T15:16:41;1.50;;;1.13;;
27746;SDS011;15138;51.012;4.692;2023-04-01T15:19:17;2.28;;;1.20;;
27746;SDS011;15138;51.012;4.692;2023-04-01T15:21:57;1.35;;;0.90;;
27746;SDS011;15138;51.012;4.692;2023-04-01T15:24:46;2.08;;;1.00;;
27746;SDS011;15138;51.012;4.692;2023-04-01T15:27:24;1.00;;;0.90;;
27746;SDS011;15138;51.012;4.692;2023-04-01T15:30:25;3.08;;;1.10;;
27746;SDS011;15138;51.012;4.692;2023-04-01T15:35:53;1.80;;;1.10;;
27746;SDS011;15138;51.012;4.692;2023-04-01T15:38:32;1.83;;;1.02;;
27746;SDS011;15138;51.012;4.692;2023-04-01T15:41:07;1.90;;;0.90;;
27746;SDS011;15138;51.012;4.692;2023-04-01T15:43:43;2.55;;;1.50;;
27746;SDS011;15138;51.012;4.692;2023-04-01T15:46:20;2.78;;;1.50;;
27746;SDS011;15138;51.012;4.692;2023-04-01T15:49:11;1.92;;;1.10;;
27746;SDS011;15138;51.012;4.692;2023-04-01T15:54:27;2.45;;;1.30;;
27746;SDS011;15138;51.012;4.692;2023-04-01T15:57:20;2.65;;;1.63;;
27746;SDS011;15138;51.012;4.692;2023-04-01T16:00:02;3.85;;;2.08;;
27746;SDS011;15138;51.012;4.692;2023-04-01T16:02:42;4.53;;;1.85;;
27746;SDS011;15138;51.012;4.692;2023-04-01T16:05:30;1.92;;;1.15;;
27746;SDS011;15138;51.012;4.692;2023-04-01T16:08:20;4.68;;;1.50;;
27746;SDS011;15138;51.012;4.692;2023-04-01T16:10:58;4.20;;;1.50;;
27746;SDS011;15138;51.012;4.692;2023-04-01T16:13:40;2.90;;;1.30;;
27746;SDS011;15138;51.012;4.692;2023-04-01T16:16:19;2.33;;;1.60;;
27746;SDS011;15138;51.012;4.692;2023-04-01T16:19:01;2.38;;;1.50;;
27746;SDS011;15138;51.012;4.692;2023-04-01T16:21:41;2.50;;;1.00;;
27746;SDS011;15138;51.012;4.692;2023-04-01T16:24:15;1.63;;;1.10;;
27746;SDS011;15138;51.012;4.692;2023-04-01T16:26:49;2.10;;;0.98;;
27746;SDS011;15138;51.012;4.692;2023-04-01T16:29:24;1.02;;;0.90;;
27746;SDS011;15138;51.012;4.692;2023-04-01T16:32:02;3.03;;;1.20;;
27746;SDS011;15138;51.012;4.692;2023-04-01T16:34:44;1.30;;;1.10;;
27746;SDS011;15138;51.012;4.692;2023-04-01T16:37:27;3.75;;;1.10;;
27746;SDS011;15138;51.012;4.692;2023-04-01T16:40:02;3.72;;;1.70;;
27746;SDS011;15138;51.012;4.692;2023-04-01T16:42:43;2.25;;;1.20;;
27746;SDS011;15138;51.012;4.692;2023-04-01T16:45:21;1.10;;;1.00;;
27746;SDS011;15138;51.012;4.692;2023-04-01T16:48:00;2.13;;;1.30;;
27746;SDS011;15138;51.012;4.692;2023-04-01T16:53:14;2.38;;;1.40;;
27746;SDS011;15138;51.012;4.692;2023-04-01T16:55:48;2.97;;;1.25;;
27746;SDS011;15138;51.012;4.692;2023-04-01T16:58:21;2.78;;;1.38;;
27746;SDS011;15138;51.012;4.692;2023-04-01T17:00:53;3.65;;;1.58;;
27746;SDS011;15138;51.012;4.692;2023-04-01T17:03:27;2.05;;;1.30;;
27746;SDS011;15138;51.012;4.692;2023-04-01T17:06:06;1.73;;;1.50;;
27746;SDS011;15138;51.012;4.692;2023-04-01T17:08:46;1.73;;;1.20;;
27746;SDS011;15138;51.012;4.692;2023-04-01T17:11:26;2.67;;;1.77;;
27746;SDS011;15138;51.012;4.692;2023-04-01T17:14:01;2.08;;;1.35;;
27746;SDS011;15138;51.012;4.692;2023-04-01T17:16:42;2.35;;;1.30;;
27746;SDS011;15138;51.012;4.692;2023-04-01T17:19:28;2.25;;;1.17;;
27746;SDS011;15138;51.012;4.692;2023-04-01T17:22:12;2.13;;;1.20;;
27746;SDS011;15138;51.012;4.692;2023-04-01T17:24:58;1.35;;;0.95;;
27746;SDS011;15138;51.012;4.692;2023-04-01T17:27:38;1.83;;;1.63;;